createdAt,value
2023-04-25T00:03:20.111Z,17.75
2023-04-25T00:08:24.417Z,21.27
2023-04-25T00:13:27.859Z,22.77
2023-04-25T00:18:30.828Z,17.52
2023-04-25T00:23:33.721Z,18.20
2023-04-25T00:28:36.640Z,17.38
2023-04-25T00:33:39.525Z,17.75
2023-04-25T00:38:42.498Z,17.98
2023-04-25T00:43:47.255Z,17.08
2023-04-25T00:48:50.474Z,16.50
2023-04-25T00:53:54.069Z,18.38
2023-04-25T00:59:16.669Z,17.65
2023-04-25T01:04:19.858Z,20.23
2023-04-25T01:09:24.152Z,21.92
2023-04-25T01:14:27.373Z,20.27
2023-04-25T01:19:30.498Z,27.33
2023-04-25T01:29:37.566Z,22.65
2023-04-25T01:40:02.142Z,26.50
2023-04-25T01:45:07.678Z,25.00
2023-04-25T01:50:12.415Z,25.05
2023-04-25T01:55:15.768Z,26.90
2023-04-25T02:00:35.492Z,21.00
2023-04-25T02:05:41.618Z,20.35
2023-04-25T02:10:48.146Z,16.85
2023-04-25T02:15:54.637Z,19.33
2023-04-25T02:21:16.386Z,21.23
2023-04-25T02:26:20.079Z,20.17
2023-04-25T02:31:23.056Z,18.85
2023-04-25T02:36:27.888Z,18.88
2023-04-25T02:41:31.016Z,19.55
2023-04-25T02:46:39.278Z,22.88
2023-04-25T02:51:42.947Z,27.50
2023-04-25T02:56:46.094Z,23.67
2023-04-25T03:01:56.385Z,23.27
2023-04-25T03:07:00.745Z,24.55
2023-04-25T03:12:04.088Z,23.20
2023-04-25T03:17:09.109Z,27.60
2023-04-25T03:22:30.886Z,27.27
2023-04-25T03:27:34.061Z,25.52
2023-04-25T03:32:37.184Z,21.42
2023-04-25T03:37:41.805Z,21.85
2023-04-25T03:43:03.279Z,21.73
2023-04-25T03:48:06.471Z,22.05
2023-04-25T03:58:32.629Z,24.65
2023-04-25T04:03:37.571Z,22.92
2023-04-25T04:08:41.811Z,25.08
2023-04-25T04:13:46.388Z,23.00
2023-04-25T04:18:49.459Z,20.42
2023-04-25T04:23:53.757Z,21.02
2023-04-25T04:29:21.971Z,22.50
2023-04-25T04:34:36.348Z,22.60
2023-04-25T04:39:39.686Z,21.08
2023-04-25T04:45:07.783Z,20.20
2023-04-25T04:50:49.213Z,19.90
2023-04-25T04:56:01.918Z,17.52
2023-04-25T05:01:23.751Z,20.92
2023-04-25T05:06:49.872Z,17.90
2023-04-25T05:11:53.322Z,17.08
2023-04-25T05:17:25.331Z,19.58
2023-04-25T05:22:48.553Z,13.38
2023-04-25T05:28:14.791Z,10.80
2023-04-25T05:33:28.646Z,8.55
2023-04-25T05:38:34.523Z,7.80
2023-04-25T05:43:48.788Z,7.40
2023-04-25T05:49:01.929Z,7.18
2023-04-25T05:54:23.695Z,8.80
2023-04-25T05:59:27.037Z,7.13
2023-04-25T06:04:30.504Z,9.55
2023-04-25T06:09:33.643Z,8.23
2023-04-25T06:14:36.786Z,7.13
2023-04-25T06:19:40.082Z,7.93
2023-04-25T06:24:43.285Z,7.70
2023-04-25T06:29:46.371Z,7.97
2023-04-25T06:34:50.587Z,6.95
2023-04-25T06:39:53.664Z,7.13
2023-04-25T06:50:00.581Z,7.28
2023-04-25T06:55:06.225Z,6.63
2023-04-25T07:00:35.568Z,8.15
2023-04-25T07:05:38.786Z,8.23
2023-04-25T07:10:42.160Z,8.60
2023-04-25T07:25:51.608Z,8.68
2023-04-25T07:30:59.307Z,9.35
2023-04-25T07:36:02.255Z,10.82
2023-04-25T07:41:05.480Z,11.50
2023-04-25T07:46:08.705Z,8.77
2023-04-25T07:51:12.802Z,12.80
2023-04-25T07:56:16.457Z,12.20
2023-04-25T08:01:22.826Z,12.52
2023-04-25T08:06:38.397Z,10.75
2023-04-25T08:11:46.357Z,11.57
2023-04-25T08:16:51.955Z,12.90
2023-04-25T08:21:57.763Z,15.20
2023-04-25T08:27:08.894Z,12.10
2023-04-25T08:32:12.482Z,11.68
2023-04-25T08:37:22.108Z,9.77
2023-04-25T08:42:39.546Z,12.10
2023-04-25T08:47:44.555Z,9.20
2023-04-25T08:52:49.332Z,10.98
2023-04-25T08:57:53.763Z,9.85
2023-04-25T09:02:58.194Z,9.65
2023-04-25T09:08:06.058Z,12.43
2023-04-25T09:13:26.915Z,9.80
2023-04-25T09:18:50.723Z,9.77
2023-04-25T09:23:54.899Z,11.77
2023-04-25T09:29:08.484Z,11.30
2023-04-25T09:34:16.914Z,12.32
2023-04-25T09:39:29.854Z,10.73
2023-04-25T09:44:46.894Z,9.50
2023-04-25T09:49:53.061Z,12.05
2023-04-25T09:54:57.466Z,11.07
2023-04-25T10:00:13.260Z,11.82
2023-04-25T10:05:19.868Z,12.65
2023-04-25T10:10:41.639Z,12.93
2023-04-25T10:15:44.970Z,15.13
2023-04-25T10:20:47.898Z,11.13
2023-04-25T10:26:13.988Z,12.35
2023-04-25T10:31:18.677Z,13.60
2023-04-25T10:36:28.378Z,10.88
2023-04-25T10:41:31.341Z,11.20
2023-04-25T10:46:36.165Z,11.45
2023-04-25T10:51:51.660Z,12.43
2023-04-25T10:56:59.892Z,11.32
2023-04-25T11:02:14.452Z,11.00
2023-04-25T11:13:05.285Z,15.35
2023-04-25T11:18:28.406Z,10.73
2023-04-25T11:23:31.977Z,13.70
2023-04-25T11:28:34.859Z,12.15
2023-04-25T11:33:38.032Z,11.77
2023-04-25T11:38:41.613Z,14.93
2023-04-25T11:43:45.004Z,13.88
2023-04-25T11:53:52.435Z,12.60
2023-04-25T11:59:14.644Z,11.63
2023-04-25T12:04:22.893Z,12.52
2023-04-25T12:09:31.677Z,13.57
2023-04-25T12:14:36.960Z,13.10
2023-04-25T12:19:44.917Z,12.25
2023-04-25T12:25:07.120Z,10.40
2023-04-25T12:30:11.797Z,10.25
2023-04-25T12:35:14.629Z,12.18
2023-04-25T12:40:17.780Z,9.32
2023-04-25T12:50:23.442Z,10.23
2023-04-25T12:55:26.601Z,7.47
2023-04-25T13:05:33.628Z,10.95
2023-04-25T13:10:37.457Z,8.95
2023-04-25T13:15:40.754Z,8.93
2023-04-25T13:20:43.683Z,10.50
2023-04-25T13:25:46.509Z,10.93
2023-04-25T13:30:49.384Z,9.75
2023-04-25T13:35:56.619Z,9.63
2023-04-25T13:40:59.670Z,8.30
2023-04-25T13:46:02.593Z,10.68
2023-04-25T13:51:05.699Z,11.13
2023-04-25T13:56:08.595Z,12.25
2023-04-25T14:01:12.006Z,9.73
2023-04-25T14:06:14.950Z,12.93
2023-04-25T14:11:19.452Z,11.30
2023-04-25T14:16:24.121Z,10.85
2023-04-25T14:26:48.155Z,10.77
2023-04-25T14:31:51.144Z,10.23
2023-04-25T14:36:54.024Z,12.45
2023-04-25T14:41:57.556Z,13.70
2023-04-25T14:47:00.745Z,13.85
2023-04-25T14:52:04.346Z,12.48
2023-04-25T14:57:07.540Z,9.80
2023-04-25T15:02:10.781Z,12.25
2023-04-25T15:12:16.351Z,8.77
2023-04-25T15:17:19.215Z,9.63
2023-04-25T15:22:22.392Z,10.13
2023-04-25T15:32:28.181Z,9.48
2023-04-25T15:37:31.795Z,9.00
2023-04-25T15:42:34.725Z,8.15
2023-04-25T15:47:39.022Z,8.77
2023-04-25T15:52:43.924Z,10.75
2023-04-25T15:57:47.969Z,9.30
2023-04-25T16:02:51.803Z,11.38
2023-04-25T16:07:55.002Z,11.38
2023-04-25T16:12:58.000Z,15.73
2023-04-25T16:18:00.961Z,15.90
2023-04-25T16:23:03.920Z,21.30
2023-04-25T16:28:06.984Z,17.08
2023-04-25T16:33:10.203Z,21.17
2023-04-25T16:38:31.466Z,25.35
2023-04-25T16:43:34.650Z,28.45
2023-04-25T16:53:40.425Z,29.50
2023-04-25T16:58:43.548Z,26.15
2023-04-25T17:03:47.865Z,31.50
2023-04-25T17:08:51.482Z,31.48
2023-04-25T17:13:54.744Z,32.30
2023-04-25T17:19:16.452Z,32.03
2023-04-25T17:24:22.087Z,27.90
2023-04-25T17:29:25.148Z,25.17
2023-04-25T17:34:48.326Z,26.70
2023-04-25T17:40:12.350Z,25.17
2023-04-25T17:45:15.412Z,20.88
2023-04-25T17:50:18.732Z,24.20
2023-04-25T17:55:21.706Z,20.20
2023-04-25T18:00:25.011Z,24.75
2023-04-25T18:05:30.468Z,14.68
2023-04-25T18:10:34.552Z,16.20
2023-04-25T18:15:37.586Z,17.40
2023-04-25T18:20:44.723Z,14.75
2023-04-25T18:25:52.169Z,12.93
2023-04-25T18:30:55.154Z,12.55
2023-04-25T18:35:59.809Z,17.08
2023-04-25T18:41:20.978Z,11.35
2023-04-25T18:46:26.116Z,11.13
2023-04-25T18:51:32.574Z,11.23
2023-04-25T18:56:35.949Z,15.10
2023-04-25T19:01:57.713Z,12.95
2023-04-25T19:07:01.406Z,15.80
2023-04-25T19:12:05.272Z,14.25
2023-04-25T19:17:08.237Z,15.02
2023-04-25T19:22:11.821Z,15.13
2023-04-25T19:27:15.149Z,15.00
2023-04-25T19:37:21.064Z,18.88
2023-04-25T19:42:24.291Z,18.33
2023-04-25T19:47:45.521Z,15.20
2023-04-25T19:52:48.506Z,13.35
2023-04-25T19:58:10.006Z,13.95
2023-04-25T20:03:13.083Z,15.38
2023-04-25T20:08:16.463Z,16.30
2023-04-25T20:13:19.312Z,16.75
2023-04-25T20:18:22.214Z,14.32
2023-04-25T20:23:25.219Z,9.30
2023-04-25T20:28:46.911Z,11.27
2023-04-25T20:33:49.849Z,10.18
2023-04-25T20:38:53.213Z,11.13
2023-04-25T20:43:57.118Z,9.50
2023-04-25T20:49:01.739Z,10.57
2023-04-25T20:54:04.684Z,12.63
2023-04-25T20:59:07.752Z,10.13
2023-04-25T21:04:11.065Z,8.13
2023-04-25T21:14:18.767Z,8.63
2023-04-25T21:19:21.713Z,7.90
2023-04-25T21:24:27.094Z,11.57
2023-04-25T21:29:30.038Z,10.07
2023-04-25T21:34:32.944Z,18.05
2023-04-25T21:39:35.824Z,16.73
2023-04-25T21:44:38.761Z,16.42
2023-04-25T21:49:41.732Z,16.40
2023-04-25T21:54:44.785Z,14.15
2023-04-25T21:59:48.270Z,18.63
2023-04-25T22:09:56.058Z,17.13
2023-04-25T22:14:59.839Z,24.05
2023-04-25T22:20:06.032Z,20.48
2023-04-25T22:25:10.157Z,23.98
2023-04-25T22:30:13.618Z,22.63
2023-04-25T22:35:16.867Z,25.38
2023-04-25T22:40:20.085Z,19.52
2023-04-25T22:45:23.036Z,26.42
2023-04-25T22:50:27.248Z,25.70
2023-04-25T22:55:30.252Z,30.30
2023-04-25T23:00:34.608Z,25.08
2023-04-25T23:05:38.556Z,30.77
2023-04-25T23:11:00.401Z,26.75
2023-04-25T23:16:22.400Z,36.58
2023-04-25T23:26:28.437Z,32.33
2023-04-25T23:31:31.414Z,37.78
2023-04-25T23:36:34.578Z,37.40
2023-04-25T23:41:37.987Z,28.98
2023-04-25T23:46:41.365Z,39.33
2023-04-25T23:51:44.435Z,43.00
2023-04-25T23:56:47.359Z,39.25
